Latest Weather Observations for Mount Crawford

IDS60801

Issued at 4:31 pm CDT Sunday 14 February 2016 (issued every 30 minutes, with the page automatically refreshed every 10 minutes)

About weather observations | Map of weather stations | Latest weather observations for SA | Other Formats
Station Details ID: 023878 Name: MOUNT CRAWFORD AWS Lat: -34.73 Lon: 138.93 Height: 525.0 m
Data from the previous 72 hours. | See also: Recent months at Mount Crawford
Date/Time
CDT
Temp
°C
App
Temp
°C
Dew
Point
Rel
Hum
%
Delta-T
°C
Wind Press
QNH
hPa
Press
MSL
hPa
Rain
since 9 am
mm
Dir
 
Spd
km/h
Gust
km/h
Spd
kts
Gust
kts
14/04:30pm 21.5 17.6 8.7 44 6.9 W 19 28 10 15 1014.8 1012.6 0.0
14/04:00pm 21.1 17.2 9.4 47 6.4 WSW 20 33 11 18 1014.9 1012.7 0.0
14/03:30pm 20.9 16.5 8.9 46 6.5 W 22 33 12 18 1015.1 1012.8 0.0
14/03:00pm 21.6 18.1 8.8 44 7.0 WSW 17 24 9 13 1015.6 1013.3 0.0
14/02:30pm 21.1 17.3 9.0 46 6.6 SW 19 30 10 16 1015.7 1013.4 0.0
14/02:00pm 19.9 15.6 9.2 50 5.8 W 22 35 12 19 1015.8 1013.5 0.0
14/01:30pm 21.4 18.5 8.3 43 7.0 W 13 26 7 14 1015.9 1013.6 0.0
14/01:00pm 20.8 17.5 8.1 44 6.8 SW 15 28 8 15 1016.1 1013.8 0.0
14/12:30pm 19.4 15.2 7.5 46 6.2 WSW 19 28 10 15 1016.3 1014.1 0.0
14/12:00pm 19.3 15.9 7.7 47 6.1 WSW 15 26 8 14 1016.6 1014.4 0.0
14/11:30am 18.0 15.2 8.6 54 5.0 WSW 13 24 7 13 1016.8 1014.6 0.0
14/11:00am 16.8 14.1 9.0 60 4.1 SW 13 20 7 11 1017.1 1014.8 0.0
14/10:30am 16.5 13.9 10.6 68 3.2 SW 15 22 8 12 1017.1 1014.8 0.0
14/10:00am 16.3 13.2 10.2 67 3.3 W 17 22 9 12 1016.8 1014.6 0.0
14/09:30am 16.0 12.2 9.2 64 3.6 SW 19 28 10 15 1016.6 1014.4 0.0
14/09:00am 15.2 13.2 11.6 79 2.0 WSW 13 20 7 11 1016.6 1014.4 0.0
14/08:30am 14.6 13.4 11.7 83 1.6 SW 9 15 5 8 1016.3 1014.1 0.0
14/08:00am 13.8 11.8 11.5 86 1.3 SW 13 20 7 11 1016.0 1013.7 0.0
14/07:30am 12.6 10.2 11.5 93 0.6 SSW 15 20 8 11 1015.7 1013.4 0.0
14/07:00am 12.2 10.1 11.3 94 0.5 SSW 13 17 7 9 1015.3 1013.0 0.0
14/06:30am 12.0 9.9 11.2 95 0.4 SSW 13 17 7 9 1014.8 1012.6 0.0
14/06:00am 12.3 9.9 11.4 94 0.5 SSW 15 20 8 11 1014.4 1012.1 0.0
14/05:30am 12.3 9.9 11.5 95 0.4 S 15 19 8 10 1014.0 1011.7 0.0
14/05:00am 12.2 9.5 11.6 96 0.3 SSW 17 20 9 11 1013.9 1011.6 0.0
14/04:30am 12.2 10.3 11.7 97 0.3 SSW 13 17 7 9 1013.7 1011.4 0.0
14/04:00am 12.3 10.7 11.7 96 0.3 SSW 11 17 6 9 1013.6 1011.3 0.0
14/03:30am 12.5 11.2 11.4 93 0.6 SW 9 15 5 8 1013.6 1011.3 0.0
14/03:00am 12.7 11.0 11.3 91 0.8 SW 11 15 6 8 1013.7 1011.4 0.0
14/02:30am 12.9 10.9 11.5 91 0.8 SSW 13 17 7 9 1013.7 1011.4 0.0
14/02:00am 13.2 10.9 11.8 91 0.8 SSW 15 20 8 11 1013.8 1011.5 0.0
14/01:30am 13.7 9.7 11.9 89 1.0 SSW 24 32 13 17 1014.0 1011.7 0.0
14/01:00am 14.0 11.0 12.6 91 0.8 SSW 20 26 11 14 1014.2 1011.9 0.0
14/12:30am 14.4 11.2 13.0 91 0.8 SSW 22 30 12 16 1014.3 1012.0 0.0
14/12:00am 14.9 11.9 12.6 86 1.3 S 20 28 11 15 1014.3 1012.0 0.0
 
Date/Time
CDT
Temp
°C
App
Temp
°C
Dew
Point
Rel
Hum
%
Delta-T
°C
Wind Press
QNH
hPa
Press
MSL
hPa
Rain
since 9 am
mm
Dir
 
Spd
km/h
Gust
km/h
Spd
kts
Gust
kts
13/11:30pm 15.7 13.6 13.5 87 1.3 S 17 24 9 13 1014.5 1012.2 0.0
13/11:00pm 16.4 14.1 14.2 87 1.3 S 19 24 10 13 1014.5 1012.2 0.0
13/10:30pm 17.1 15.5 15.1 88 1.2 SSW 17 26 9 14 1014.5 1012.2 0.0
13/10:00pm 17.8 16.8 15.6 87 1.3 SSW 15 20 8 11 1014.4 1012.1 0.0
13/09:30pm 18.1 18.1 16.3 89 1.1 SW 11 17 6 9 1014.3 1012.0 0.0
13/09:00pm 18.4 17.6 16.2 87 1.3 WSW 15 20 8 11 1014.1 1011.8 0.0
13/08:30pm 19.2 18.5 15.3 78 2.3 WSW 13 20 7 11 1013.5 1011.2 0.0
13/08:00pm 20.0 17.9 13.7 67 3.7 WSW 17 22 9 12 1013.1 1010.8 0.0
13/07:30pm 20.6 18.7 13.1 62 4.4 WSW 15 20 8 11 1012.9 1010.7 0.0
13/07:00pm 20.8 18.7 13.7 64 4.2 WSW 17 22 9 12 1012.7 1010.4 0.0
13/06:30pm 21.0 19.2 14.4 66 3.9 WSW 17 28 9 15 1012.8 1010.5 0.0
13/06:00pm 21.4 19.2 14.8 66 4.0 WSW 20 32 11 17 1012.8 1010.5 0.0
13/05:30pm 22.7 20.1 13.7 56 5.4 WSW 20 32 11 17 1012.8 1010.5 0.0
13/05:00pm 24.2 20.8 11.2 44 7.5 WSW 20 35 11 19 1012.8 1010.5 0.0
13/04:30pm 26.6 21.7 8.6 32 10.0 WSW 24 39 13 21 1012.6 1010.3 0.0
13/04:00pm 26.6 20.9 5.0 25 11.3 WSW 24 37 13 20 1012.6 1010.3 0.0
13/03:30pm 27.3 21.1 6.1 26 11.3 W 28 41 15 22 1012.7 1010.4 0.0
13/03:00pm 27.2 21.7 9.1 32 10.2 W 28 41 15 22 1012.9 1010.7 0.0
13/02:30pm 27.5 22.1 7.9 29 10.8 W 26 37 14 20 1013.2 1010.9 0.0
13/02:00pm 26.3 20.3 6.9 29 10.5 W 28 39 15 21 1013.1 1010.8 0.0
13/01:30pm 27.5 22.1 6.3 26 11.4 W 24 37 13 20 1013.3 1011.0 0.0
13/01:00pm 26.3 21.4 6.9 29 10.5 W 22 35 12 19 1013.4 1011.1 0.0
13/12:30pm 27.0 22.7 9.4 33 9.9 W 22 33 12 18 1013.3 1011.0 0.0
13/12:00pm 26.0 22.0 8.9 34 9.5 W 20 32 11 17 1013.6 1011.3 0.0
13/11:30am 25.1 21.3 9.0 36 8.9 W 19 26 10 14 1013.6 1011.3 0.0
13/11:00am 23.7 19.8 9.3 40 8.0 WNW 20 32 11 17 1013.6 1011.3 0.0
13/10:30am 23.4 19.1 7.9 37 8.4 WNW 20 30 11 16 1013.6 1011.3 0.0
13/10:00am 22.2 18.9 9.4 44 7.1 WNW 17 22 9 12 1013.6 1011.3 0.0
13/09:30am 20.8 17.2 6.7 40 7.3 W 15 19 8 10 1013.8 1011.5 0.0
13/09:00am 20.3 17.9 10.1 52 5.6 WSW 13 17 7 9 1013.9 1011.6 0.0
13/08:30am 18.8 17.1 12.3 66 3.7 W 13 17 7 9 1013.7 1011.4 0.0
13/08:00am 18.1 16.5 12.8 71 3.0 W 13 17 7 9 1013.5 1011.2 0.0
13/07:30am 18.5 16.5 11.6 64 3.9 W 13 17 7 9 1013.3 1011.0 0.0
13/07:00am 17.9 15.4 9.8 59 4.4 W 13 17 7 9 1012.9 1010.7 0.0
13/06:30am 18.0 14.8 9.9 59 4.4 W 17 20 9 11 1012.6 1010.3 0.0
13/06:00am 18.5 14.7 9.0 54 5.1 W 19 22 10 12 1012.3 1010.0 0.0
13/05:30am 19.7 15.5 5.7 40 7.1 W 17 20 9 11 1012.2 1009.9 0.0
13/05:00am 20.3 16.3 3.1 32 8.3 W 13 17 7 9 1012.1 1009.8 0.0
13/04:30am 19.7 16.8 6.4 42 6.8 WSW 11 13 6 7 1012.1 1009.8 0.0
13/04:00am 19.8 16.2 6.9 43 6.7 WSW 15 17 8 9 1012.4 1010.1 0.0
13/03:30am 20.3 16.3 8.3 46 6.4 WSW 19 24 10 13 1012.3 1010.0 0.0
13/03:00am 20.6 17.0 8.3 45 6.6 WSW 17 20 9 11 1012.3 1010.0 0.0
13/02:30am 20.6 16.4 8.3 45 6.6 WSW 20 24 11 13 1012.6 1010.3 0.0
13/02:00am 21.0 16.7 6.9 40 7.4 WSW 19 24 10 13 1013.2 1010.9 0.0
13/01:30am 21.6 16.6 3.8 31 8.8 WSW 19 22 10 12 1013.3 1011.0 0.0
13/01:00am 22.2 16.8 1.3 25 9.9 WSW 19 24 10 13 1013.5 1011.2 0.0
13/12:30am 23.1 17.5 0.2 22 10.7 W 19 22 10 12 1013.5 1011.2 0.0
13/12:00am 23.3 18.2 -1.6 19 11.3 W 15 17 8 9 1013.6 1011.3 0.0
 
Date/Time
CDT
Temp
°C
App
Temp
°C
Dew
Point
Rel
Hum
%
Delta-T
°C
Wind Press
QNH
hPa
Press
MSL
hPa
Rain
since 9 am
mm
Dir
 
Spd
km/h
Gust
km/h
Spd
kts
Gust
kts
12/11:30pm 23.8 18.6 -2.7 17 11.8 W 15 17 8 9 1013.8 1011.5 0.0
12/11:00pm 23.3 18.6 -1.6 19 11.3 W 13 15 7 8 1014.1 1011.8 0.0
12/10:30pm 23.6 18.7 1.9 24 10.5 SW 17 22 9 12 1014.3 1012.0 0.0
12/10:00pm 21.8 17.7 4.4 32 8.7 SW 15 20 8 11 1014.4 1012.1 0.0
12/09:30pm 21.8 17.2 3.5 30 9.0 SW 17 22 9 12 1014.3 1012.0 0.0
12/09:00pm 22.3 17.6 3.4 29 9.3 WSW 17 20 9 11 1014.2 1011.9 0.0
12/08:30pm 23.6 19.2 5.0 30 9.5 WSW 17 24 9 13 1014.0 1011.7 0.0
12/08:00pm 25.6 20.9 2.9 23 11.4 WSW 17 26 9 14 1013.8 1011.5 0.0
12/07:30pm 28.0 22.8 -0.1 16 13.5 W 17 24 9 13 1013.6 1011.3 0.0
12/07:00pm 29.2 23.4 -4.3 11 15.1 W 17 22 9 12 1013.4 1011.1 0.0
12/06:30pm 30.0 25.1 -0.4 14 14.8 W 15 22 8 12 1013.4 1011.1 0.0
12/06:00pm 30.3 25.1 -0.1 14 14.9 WSW 17 28 9 15 1013.4 1011.1 0.0
12/05:30pm 30.6 24.7 -2.0 12 15.5 W 19 30 10 16 1013.4 1011.1 0.0
12/05:00pm 30.9 25.1 -1.8 12 15.6 WSW 19 35 10 19 1013.5 1011.2 0.0
12/04:30pm 31.0 24.9 0.4 14 15.2 W 22 32 12 17 1013.6 1011.3 0.0
12/04:00pm 30.4 24.2 -0.1 14 14.9 W 22 35 12 19 1013.6 1011.3 0.0
12/03:30pm 30.9 25.7 3.8 18 14.2 W 20 30 11 16 1013.9 1011.6 0.0
12/03:00pm 30.0 25.0 4.6 20 13.4 W 20 33 11 18 1014.2 1011.9 0.0
12/02:30pm 30.4 25.9 6.3 22 13.2 W 19 35 10 19 1014.2 1011.9 0.0
12/02:00pm 30.6 27.3 6.5 22 13.2 NW 13 22 7 12 1014.7 1012.5 0.0
12/01:30pm 29.2 25.1 6.0 23 12.5 W 17 30 9 16 1014.9 1012.7 0.0
12/01:00pm 29.8 25.4 6.5 23 12.7 W 19 28 10 15 1015.2 1012.9 0.0
12/12:30pm 29.5 26.4 7.4 25 12.2 NW 13 19 7 10 1015.5 1013.2 0.0
12/12:00pm 28.2 25.0 6.9 26 11.6 N 13 22 7 12 1015.9 1013.6 0.0
12/11:30am 27.7 24.2 7.0 27 11.3 NW 15 22 8 12 1016.0 1013.7 0.0
12/11:00am 26.4 23.8 9.3 34 9.6 NNE 13 20 7 11 1016.2 1013.9 0.0
12/10:30am 25.1 23.5 10.2 39 8.4 NE 9 17 5 9 1016.4 1014.2 0.0
12/10:00am 24.2 22.6 11.5 45 7.3 ENE 11 15 6 8 1016.4 1014.2 0.0
12/09:30am 21.5 19.6 12.9 58 5.0 E 15 20 8 11 1016.6 1014.4 0.0
12/09:00am 20.0 17.6 12.7 63 4.2 E 17 20 9 11 1016.6 1014.4 0.0
12/08:30am 19.1 16.2 12.4 65 3.8 ESE 19 22 10 12 1016.5 1014.3 0.0
12/08:00am 17.4 14.5 12.3 72 2.9 ESE 19 22 10 12 1016.4 1014.2 0.0
12/07:30am 15.4 12.5 12.9 85 1.4 ESE 20 24 11 13 1016.2 1013.9 0.0
12/07:00am 14.9 11.2 12.8 87 1.2 ESE 24 28 13 15 1016.0 1013.7 0.0
12/06:30am 14.1 10.4 12.7 91 0.8 ESE 24 28 13 15 1015.7 1013.4 0.0
12/06:00am 13.5 9.9 12.9 96 0.3 ESE 24 30 13 16 1015.4 1013.1 0.0
12/05:30am 13.3 9.6 12.7 96 0.3 ESE 24 32 13 17 1015.3 1013.0 0.0
12/05:00am 13.5 9.4 12.7 95 0.4 SE 26 33 14 18 1015.2 1012.9 0.0
12/04:30am 13.5 9.2 12.2 92 0.7 ESE 26 32 14 17 1014.9 1012.7 0.0
12/04:00am 14.1 9.8 12.0 87 1.2 SE 26 32 14 17 1014.9 1012.7 0.0
12/03:30am 14.5 9.7 11.5 82 1.6 SE 28 33 15 18 1014.9 1012.7 0.0
12/03:00am 14.2 9.7 11.4 83 1.5 SE 26 33 14 18 1015.2 1012.9 0.0
12/02:30am 14.1 9.3 11.6 85 1.4 SE 28 33 15 18 1015.4 1013.1 0.0
12/02:00am 14.1 8.9 11.6 85 1.4 SE 30 37 16 20 1015.7 1013.4 0.0
12/01:30am 14.1 8.6 12.0 87 1.2 SSE 32 41 17 22 1015.9 1013.6 0.0
12/01:00am 13.6 8.0 12.2 91 0.8 SE 33 43 18 23 1016.1 1013.8 0.0
12/12:30am 13.9 7.8 11.9 88 1.1 SE 35 46 19 25 1016.2 1013.9 0.0
12/12:00am 14.0 8.3 11.7 86 1.3 SE 33 46 18 25 1016.4 1014.2 0.0
 
Date/Time
CDT
Temp
°C
App
Temp
°C
Dew
Point
Rel
Hum
%
Delta-T
°C
Wind Press
QNH
hPa
Press
MSL
hPa
Rain
since 9 am
mm
Dir
 
Spd
km/h
Gust
km/h
Spd
kts
Gust
kts
11/11:30pm 13.7 8.1 12.1 90 0.9 SE 33 41 18 22 1016.5 1014.3 0.0
11/11:00pm 14.0 8.5 12.0 88 1.1 SSE 32 43 17 23 1016.7 1014.5 0.0
11/10:30pm 14.2 8.2 12.1 87 1.2 SE 35 44 19 24 1016.8 1014.6 0.0
11/10:00pm 14.3 8.3 12.0 86 1.3 SSE 35 44 19 24 1016.7 1014.5 0.0
11/09:30pm 14.7 8.7 12.2 85 1.4 SE 35 43 19 23 1016.4 1014.2 0.0
11/09:00pm 15.4 9.5 12.3 82 1.7 SE 35 43 19 23 1016.2 1013.9 0.0
11/08:30pm 16.4 12.1 12.0 75 2.5 SE 26 32 14 17 1016.1 1013.8 0.0
11/08:00pm 17.9 12.7 11.7 67 3.5 SE 30 43 16 23 1016.0 1013.7 0.0
11/07:30pm 20.4 15.6 11.6 57 5.0 SE 28 37 15 20 1015.8 1013.5 0.0
11/07:00pm 21.6 16.7 9.8 47 6.5 SE 26 35 14 19 1015.5 1013.2 0.0
11/06:30pm 23.4 19.2 9.8 42 7.6 SE 22 32 12 17 1015.4 1013.1 0.0
11/06:00pm 24.2 20.2 9.0 38 8.4 SE 20 30 11 16 1015.3 1013.0 0.0
11/05:30pm 25.6 21.7 8.6 34 9.4 SE 19 28 10 15 1015.1 1012.8 0.0
11/05:00pm 25.9 20.9 8.0 32 9.8 SE 24 33 13 18 1015.1 1012.8 0.0

Other Formats:

Comma delimited format used in spreadsheet applications
http://www.bom.gov.au/fwo/IDS60801/IDS60801.94678.axf

JavaScript Object Notation format (JSON) in row-major order
http://www.bom.gov.au/fwo/IDS60801/IDS60801.94678.json